sensor_id;sensor_type;location;lat;lon;timestamp;P1;durP1;ratioP1;P2;durP2;ratioP2
4921;SDS011;16625;53.624;10.106;2023-11-18T00:00:57;7.90;;;5.07;;
4921;SDS011;16625;53.624;10.106;2023-11-18T00:03:24;11.13;;;5.90;;
4921;SDS011;16625;53.624;10.106;2023-11-18T00:05:51;7.87;;;5.40;;
4921;SDS011;16625;53.624;10.106;2023-11-18T00:08:18;9.03;;;6.03;;
4921;SDS011;16625;53.624;10.106;2023-11-18T00:10:44;10.00;;;5.70;;
4921;SDS011;16625;53.624;10.106;2023-11-18T00:13:13;9.37;;;5.63;;
4921;SDS011;16625;53.624;10.106;2023-11-18T00:15:40;6.83;;;5.00;;
4921;SDS011;16625;53.624;10.106;2023-11-18T00:18:11;7.97;;;5.33;;
4921;SDS011;16625;53.624;10.106;2023-11-18T00:20:37;12.00;;;6.63;;
4921;SDS011;16625;53.624;10.106;2023-11-18T00:23:04;12.63;;;6.17;;
4921;SDS011;16625;53.624;10.106;2023-11-18T00:25:31;8.70;;;5.60;;
4921;SDS011;16625;53.624;10.106;2023-11-18T00:28:00;8.77;;;5.63;;
4921;SDS011;16625;53.624;10.106;2023-11-18T00:30:28;9.70;;;5.90;;
4921;SDS011;16625;53.624;10.106;2023-11-18T00:32:55;7.97;;;5.40;;
4921;SDS011;16625;53.624;10.106;2023-11-18T00:35:22;8.40;;;5.87;;
4921;SDS011;16625;53.624;10.106;2023-11-18T00:37:49;8.87;;;6.70;;
4921;SDS011;16625;53.624;10.106;2023-11-18T00:40:16;9.63;;;6.00;;
4921;SDS011;16625;53.624;10.106;2023-11-18T00:42:43;9.30;;;5.80;;
4921;SDS011;16625;53.624;10.106;2023-11-18T00:45:10;8.00;;;5.93;;
4921;SDS011;16625;53.624;10.106;2023-11-18T00:47:39;8.93;;;5.63;;
4921;SDS011;16625;53.624;10.106;2023-11-18T00:50:07;8.57;;;6.10;;
4921;SDS011;16625;53.624;10.106;2023-11-18T00:52:34;7.27;;;5.60;;
4921;SDS011;16625;53.624;10.106;2023-11-18T00:55:04;8.37;;;5.40;;
4921;SDS011;16625;53.624;10.106;2023-11-18T00:57:32;9.33;;;6.13;;
4921;SDS011;16625;53.624;10.106;2023-11-18T00:59:59;8.10;;;5.40;;
4921;SDS011;16625;53.624;10.106;2023-11-18T01:02:26;8.03;;;5.20;;
4921;SDS011;16625;53.624;10.106;2023-11-18T01:04:54;8.27;;;5.60;;
4921;SDS011;16625;53.624;10.106;2023-11-18T01:07:21;8.37;;;6.13;;
4921;SDS011;16625;53.624;10.106;2023-11-18T01:09:48;8.47;;;4.70;;
4921;SDS011;16625;53.624;10.106;2023-11-18T01:12:15;10.87;;;6.10;;
4921;SDS011;16625;53.624;10.106;2023-11-18T01:14:44;9.17;;;6.07;;
4921;SDS011;16625;53.624;10.106;2023-11-18T01:17:11;8.70;;;5.27;;
4921;SDS011;16625;53.624;10.106;2023-11-18T01:19:38;9.40;;;6.17;;
4921;SDS011;16625;53.624;10.106;2023-11-18T01:22:07;9.27;;;5.87;;
4921;SDS011;16625;53.624;10.106;2023-11-18T01:24:34;9.37;;;5.90;;
4921;SDS011;16625;53.624;10.106;2023-11-18T01:27:01;11.37;;;6.30;;
4921;SDS011;16625;53.624;10.106;2023-11-18T01:29:28;10.30;;;6.20;;
4921;SDS011;16625;53.624;10.106;2023-11-18T01:31:56;8.13;;;4.97;;
4921;SDS011;16625;53.624;10.106;2023-11-18T01:34:23;11.70;;;6.50;;
4921;SDS011;16625;53.624;10.106;2023-11-18T01:36:50;9.23;;;5.93;;
4921;SDS011;16625;53.624;10.106;2023-11-18T01:39:19;7.60;;;5.33;;
4921;SDS011;16625;53.624;10.106;2023-11-18T01:41:46;10.50;;;4.60;;
4921;SDS011;16625;53.624;10.106;2023-11-18T01:44:13;15.60;;;6.70;;
4921;SDS011;16625;53.624;10.106;2023-11-18T01:46:40;9.67;;;6.10;;
4921;SDS011;16625;53.624;10.106;2023-11-18T01:49:10;9.70;;;6.30;;
4921;SDS011;16625;53.624;10.106;2023-11-18T01:51:38;10.03;;;5.90;;
4921;SDS011;16625;53.624;10.106;2023-11-18T01:54:06;8.00;;;5.50;;
4921;SDS011;16625;53.624;10.106;2023-11-18T01:56:41;7.63;;;5.70;;
4921;SDS011;16625;53.624;10.106;2023-11-18T01:59:09;7.50;;;5.90;;
4921;SDS011;16625;53.624;10.106;2023-11-18T02:01:43;12.23;;;6.43;;
4921;SDS011;16625;53.624;10.106;2023-11-18T02:04:11;9.50;;;5.77;;
4921;SDS011;16625;53.624;10.106;2023-11-18T02:06:38;9.70;;;5.30;;
4921;SDS011;16625;53.624;10.106;2023-11-18T02:09:05;10.57;;;6.33;;
4921;SDS011;16625;53.624;10.106;2023-11-18T02:11:35;8.43;;;6.00;;
4921;SDS011;16625;53.624;10.106;2023-11-18T02:14:08;7.17;;;4.90;;
4921;SDS011;16625;53.624;10.106;2023-11-18T02:16:41;11.60;;;5.43;;
4921;SDS011;16625;53.624;10.106;2023-11-18T02:19:09;6.20;;;5.20;;
4921;SDS011;16625;53.624;10.106;2023-11-18T02:21:45;9.40;;;5.27;;
4921;SDS011;16625;53.624;10.106;2023-11-18T02:24:24;12.97;;;6.77;;
4921;SDS011;16625;53.624;10.106;2023-11-18T02:26:53;8.23;;;5.77;;
4921;SDS011;16625;53.624;10.106;2023-11-18T02:29:22;10.90;;;6.57;;
4921;SDS011;16625;53.624;10.106;2023-11-18T02:31:50;10.27;;;6.20;;
4921;SDS011;16625;53.624;10.106;2023-11-18T02:34:22;9.83;;;6.10;;
4921;SDS011;16625;53.624;10.106;2023-11-18T02:36:54;8.63;;;6.20;;
4921;SDS011;16625;53.624;10.106;2023-11-18T02:39:27;13.37;;;7.53;;
4921;SDS011;16625;53.624;10.106;2023-11-18T02:42:00;13.60;;;7.20;;
4921;SDS011;16625;53.624;10.106;2023-11-18T02:44:29;11.93;;;6.97;;
4921;SDS011;16625;53.624;10.106;2023-11-18T02:46:58;15.00;;;7.97;;
4921;SDS011;16625;53.624;10.106;2023-11-18T02:49:25;14.40;;;8.60;;
4921;SDS011;16625;53.624;10.106;2023-11-18T02:51:53;9.97;;;7.60;;
4921;SDS011;16625;53.624;10.106;2023-11-18T02:54:20;12.37;;;7.30;;
4921;SDS011;16625;53.624;10.106;2023-11-18T02:56:47;9.57;;;6.40;;
4921;SDS011;16625;53.624;10.106;2023-11-18T02:59:15;11.13;;;7.83;;
4921;SDS011;16625;53.624;10.106;2023-11-18T03:01:43;11.57;;;7.40;;
4921;SDS011;16625;53.624;10.106;2023-11-18T03:04:10;13.73;;;7.43;;
4921;SDS011;16625;53.624;10.106;2023-11-18T03:06:39;10.27;;;6.77;;
4921;SDS011;16625;53.624;10.106;2023-11-18T03:09:06;12.00;;;7.83;;
4921;SDS011;16625;53.624;10.106;2023-11-18T03:11:35;13.10;;;8.73;;
4921;SDS011;16625;53.624;10.106;2023-11-18T03:14:02;15.97;;;8.60;;
4921;SDS011;16625;53.624;10.106;2023-11-18T03:16:36;11.73;;;8.43;;
4921;SDS011;16625;53.624;10.106;2023-11-18T03:19:03;11.23;;;6.80;;
4921;SDS011;16625;53.624;10.106;2023-11-18T03:21:32;11.37;;;7.87;;
4921;SDS011;16625;53.624;10.106;2023-11-18T03:23:59;12.97;;;7.80;;
4921;SDS011;16625;53.624;10.106;2023-11-18T03:26:25;14.47;;;8.27;;
4921;SDS011;16625;53.624;10.106;2023-11-18T03:28:52;11.63;;;7.93;;
4921;SDS011;16625;53.624;10.106;2023-11-18T03:31:19;13.67;;;7.93;;
4921;SDS011;16625;53.624;10.106;2023-11-18T03:33:48;10.73;;;7.73;;
4921;SDS011;16625;53.624;10.106;2023-11-18T03:36:14;14.90;;;8.70;;
4921;SDS011;16625;53.624;10.106;2023-11-18T03:38:43;17.67;;;8.10;;
4921;SDS011;16625;53.624;10.106;2023-11-18T03:41:10;11.97;;;7.27;;
4921;SDS011;16625;53.624;10.106;2023-11-18T03:43:38;12.67;;;7.13;;
4921;SDS011;16625;53.624;10.106;2023-11-18T03:46:05;11.00;;;7.40;;
4921;SDS011;16625;53.624;10.106;2023-11-18T03:48:32;13.00;;;9.07;;
4921;SDS011;16625;53.624;10.106;2023-11-18T03:51:02;16.30;;;8.53;;
4921;SDS011;16625;53.624;10.106;2023-11-18T03:53:29;16.80;;;8.60;;
4921;SDS011;16625;53.624;10.106;2023-11-18T03:55:58;17.43;;;8.33;;
4921;SDS011;16625;53.624;10.106;2023-11-18T03:58:25;11.33;;;7.90;;
4921;SDS011;16625;53.624;10.106;2023-11-18T04:00:52;10.67;;;7.10;;
4921;SDS011;16625;53.624;10.106;2023-11-18T04:03:21;12.27;;;7.63;;
4921;SDS011;16625;53.624;10.106;2023-11-18T04:05:48;21.13;;;7.83;;
4921;SDS011;16625;53.624;10.106;2023-11-18T04:08:16;13.30;;;7.80;;
4921;SDS011;16625;53.624;10.106;2023-11-18T04:10:43;13.47;;;7.77;;
4921;SDS011;16625;53.624;10.106;2023-11-18T04:13:10;12.33;;;7.93;;
4921;SDS011;16625;53.624;10.106;2023-11-18T04:15:37;12.83;;;8.30;;
4921;SDS011;16625;53.624;10.106;2023-11-18T04:18:04;14.60;;;8.60;;
4921;SDS011;16625;53.624;10.106;2023-11-18T04:20:31;15.70;;;7.67;;
4921;SDS011;16625;53.624;10.106;2023-11-18T04:22:58;13.90;;;8.40;;
4921;SDS011;16625;53.624;10.106;2023-11-18T04:25:27;12.33;;;7.13;;
4921;SDS011;16625;53.624;10.106;2023-11-18T04:27:54;12.50;;;8.00;;
4921;SDS011;16625;53.624;10.106;2023-11-18T04:30:21;13.37;;;7.43;;
4921;SDS011;16625;53.624;10.106;2023-11-18T04:32:48;12.00;;;7.40;;
4921;SDS011;16625;53.624;10.106;2023-11-18T04:35:17;14.27;;;8.10;;
4921;SDS011;16625;53.624;10.106;2023-11-18T04:37:44;15.57;;;7.33;;
4921;SDS011;16625;53.624;10.106;2023-11-18T04:40:11;11.93;;;7.20;;
4921;SDS011;16625;53.624;10.106;2023-11-18T04:42:39;15.43;;;8.10;;
4921;SDS011;16625;53.624;10.106;2023-11-18T04:45:07;12.97;;;8.00;;
4921;SDS011;16625;53.624;10.106;2023-11-18T04:47:35;17.30;;;8.30;;
4921;SDS011;16625;53.624;10.106;2023-11-18T04:50:03;12.83;;;8.10;;
4921;SDS011;16625;53.624;10.106;2023-11-18T04:52:31;12.73;;;8.00;;
4921;SDS011;16625;53.624;10.106;2023-11-18T04:54:59;13.77;;;7.97;;
4921;SDS011;16625;53.624;10.106;2023-11-18T04:57:26;12.53;;;7.87;;
4921;SDS011;16625;53.624;10.106;2023-11-18T04:59:55;11.80;;;8.20;;
4921;SDS011;16625;53.624;10.106;2023-11-18T05:02:22;10.47;;;7.63;;
4921;SDS011;16625;53.624;10.106;2023-11-18T05:04:49;12.67;;;7.63;;
4921;SDS011;16625;53.624;10.106;2023-11-18T05:07:16;13.13;;;8.00;;
4921;SDS011;16625;53.624;10.106;2023-11-18T05:09:43;13.27;;;7.30;;
4921;SDS011;16625;53.624;10.106;2023-11-18T05:12:10;12.77;;;7.57;;
4921;SDS011;16625;53.624;10.106;2023-11-18T05:14:37;10.30;;;7.17;;
4921;SDS011;16625;53.624;10.106;2023-11-18T05:17:07;11.97;;;8.07;;
4921;SDS011;16625;53.624;10.106;2023-11-18T05:19:34;13.30;;;8.17;;
4921;SDS011;16625;53.624;10.106;2023-11-18T05:22:01;15.00;;;8.80;;
4921;SDS011;16625;53.624;10.106;2023-11-18T05:24:29;13.03;;;7.30;;
4921;SDS011;16625;53.624;10.106;2023-11-18T05:26:56;13.37;;;7.70;;
4921;SDS011;16625;53.624;10.106;2023-11-18T05:29:26;12.60;;;7.37;;
4921;SDS011;16625;53.624;10.106;2023-11-18T05:31:53;13.57;;;8.00;;
4921;SDS011;16625;53.624;10.106;2023-11-18T05:34:22;13.40;;;7.80;;
4921;SDS011;16625;53.624;10.106;2023-11-18T05:36:49;10.97;;;7.20;;
4921;SDS011;16625;53.624;10.106;2023-11-18T05:39:19;14.77;;;8.30;;
4921;SDS011;16625;53.624;10.106;2023-11-18T05:41:46;14.30;;;7.57;;
4921;SDS011;16625;53.624;10.106;2023-11-18T05:44:15;15.97;;;8.67;;
4921;SDS011;16625;53.624;10.106;2023-11-18T05:46:44;12.50;;;8.37;;
4921;SDS011;16625;53.624;10.106;2023-11-18T05:49:12;9.83;;;7.17;;
4921;SDS011;16625;53.624;10.106;2023-11-18T05:51:41;13.70;;;8.40;;
4921;SDS011;16625;53.624;10.106;2023-11-18T05:54:08;14.03;;;8.07;;
4921;SDS011;16625;53.624;10.106;2023-11-18T05:56:35;13.73;;;7.17;;
4921;SDS011;16625;53.624;10.106;2023-11-18T05:59:02;11.07;;;7.27;;
4921;SDS011;16625;53.624;10.106;2023-11-18T06:01:29;16.63;;;7.90;;
4921;SDS011;16625;53.624;10.106;2023-11-18T06:03:56;12.73;;;8.10;;
4921;SDS011;16625;53.624;10.106;2023-11-18T06:06:24;12.13;;;7.47;;
4921;SDS011;16625;53.624;10.106;2023-11-18T06:08:53;15.57;;;8.93;;
4921;SDS011;16625;53.624;10.106;2023-11-18T06:11:20;14.03;;;7.57;;
4921;SDS011;16625;53.624;10.106;2023-11-18T06:13:49;10.30;;;7.57;;
4921;SDS011;16625;53.624;10.106;2023-11-18T06:16:16;17.43;;;7.83;;
4921;SDS011;16625;53.624;10.106;2023-11-18T06:18:46;13.50;;;8.30;;
4921;SDS011;16625;53.624;10.106;2023-11-18T06:21:14;14.63;;;8.90;;
4921;SDS011;16625;53.624;10.106;2023-11-18T06:23:43;10.00;;;7.77;;
4921;SDS011;16625;53.624;10.106;2023-11-18T06:26:14;14.60;;;8.63;;
4921;SDS011;16625;53.624;10.106;2023-11-18T06:28:41;9.77;;;7.97;;
4921;SDS011;16625;53.624;10.106;2023-11-18T06:31:09;14.13;;;9.23;;
4921;SDS011;16625;53.624;10.106;2023-11-18T06:33:37;14.03;;;8.60;;
4921;SDS011;16625;53.624;10.106;2023-11-18T06:36:08;17.93;;;7.47;;
4921;SDS011;16625;53.624;10.106;2023-11-18T06:38:36;16.97;;;8.03;;
4921;SDS011;16625;53.624;10.106;2023-11-18T06:41:03;13.53;;;7.70;;
4921;SDS011;16625;53.624;10.106;2023-11-18T06:43:36;15.77;;;9.53;;
4921;SDS011;16625;53.624;10.106;2023-11-18T06:46:16;19.23;;;10.10;;
4921;SDS011;16625;53.624;10.106;2023-11-18T06:48:47;16.67;;;9.03;;
4921;SDS011;16625;53.624;10.106;2023-11-18T06:51:14;16.47;;;10.50;;
4921;SDS011;16625;53.624;10.106;2023-11-18T06:53:41;16.33;;;9.70;;
4921;SDS011;16625;53.624;10.106;2023-11-18T06:56:09;15.90;;;9.03;;
4921;SDS011;16625;53.624;10.106;2023-11-18T06:58:39;15.00;;;8.73;;
4921;SDS011;16625;53.624;10.106;2023-11-18T07:01:07;17.17;;;9.37;;
4921;SDS011;16625;53.624;10.106;2023-11-18T07:03:34;15.63;;;9.40;;
4921;SDS011;16625;53.624;10.106;2023-11-18T07:06:01;15.70;;;8.47;;
4921;SDS011;16625;53.624;10.106;2023-11-18T07:08:31;15.97;;;8.90;;
4921;SDS011;16625;53.624;10.106;2023-11-18T07:10:58;17.03;;;9.60;;
4921;SDS011;16625;53.624;10.106;2023-11-18T07:13:26;16.40;;;9.50;;
4921;SDS011;16625;53.624;10.106;2023-11-18T07:15:55;16.33;;;9.47;;
4921;SDS011;16625;53.624;10.106;2023-11-18T07:18:22;17.90;;;9.57;;
4921;SDS011;16625;53.624;10.106;2023-11-18T07:20:49;11.90;;;7.83;;
4921;SDS011;16625;53.624;10.106;2023-11-18T07:23:17;14.90;;;8.67;;
4921;SDS011;16625;53.624;10.106;2023-11-18T07:25:44;15.93;;;8.40;;
4921;SDS011;16625;53.624;10.106;2023-11-18T07:28:12;23.53;;;10.33;;
4921;SDS011;16625;53.624;10.106;2023-11-18T07:30:42;15.97;;;8.70;;
4921;SDS011;16625;53.624;10.106;2023-11-18T07:33:14;17.73;;;10.90;;
4921;SDS011;16625;53.624;10.106;2023-11-18T07:35:42;22.93;;;11.80;;
4921;SDS011;16625;53.624;10.106;2023-11-18T07:38:11;20.00;;;11.60;;
4921;SDS011;16625;53.624;10.106;2023-11-18T07:40:39;17.77;;;10.40;;
4921;SDS011;16625;53.624;10.106;2023-11-18T07:43:07;19.67;;;10.10;;
4921;SDS011;16625;53.624;10.106;2023-11-18T07:45:36;21.70;;;10.40;;
4921;SDS011;16625;53.624;10.106;2023-11-18T07:48:04;19.23;;;10.80;;
4921;SDS011;16625;53.624;10.106;2023-11-18T07:50:33;18.80;;;10.63;;
4921;SDS011;16625;53.624;10.106;2023-11-18T07:53:00;18.80;;;11.07;;
4921;SDS011;16625;53.624;10.106;2023-11-18T07:55:28;15.37;;;9.33;;
4921;SDS011;16625;53.624;10.106;2023-11-18T07:57:55;19.77;;;10.20;;
4921;SDS011;16625;53.624;10.106;2023-11-18T08:00:22;19.97;;;9.70;;
4921;SDS011;16625;53.624;10.106;2023-11-18T08:02:49;18.67;;;9.33;;
4921;SDS011;16625;53.624;10.106;2023-11-18T08:05:19;15.03;;;8.97;;
4921;SDS011;16625;53.624;10.106;2023-11-18T08:07:49;16.93;;;8.90;;
4921;SDS011;16625;53.624;10.106;2023-11-18T08:10:16;14.17;;;8.33;;
4921;SDS011;16625;53.624;10.106;2023-11-18T08:12:44;14.50;;;8.90;;
4921;SDS011;16625;53.624;10.106;2023-11-18T08:15:12;18.87;;;9.40;;
4921;SDS011;16625;53.624;10.106;2023-11-18T08:17:40;19.50;;;10.30;;
4921;SDS011;16625;53.624;10.106;2023-11-18T08:20:07;19.23;;;9.80;;
4921;SDS011;16625;53.624;10.106;2023-11-18T08:22:39;18.23;;;10.50;;
4921;SDS011;16625;53.624;10.106;2023-11-18T08:25:08;15.53;;;9.60;;
4921;SDS011;16625;53.624;10.106;2023-11-18T08:27:35;14.93;;;9.07;;
4921;SDS011;16625;53.624;10.106;2023-11-18T08:30:02;19.80;;;10.50;;
4921;SDS011;16625;53.624;10.106;2023-11-18T08:32:35;17.77;;;10.13;;
4921;SDS011;16625;53.624;10.106;2023-11-18T08:35:03;16.50;;;9.07;;
4921;SDS011;16625;53.624;10.106;2023-11-18T08:37:32;15.90;;;9.70;;
4921;SDS011;16625;53.624;10.106;2023-11-18T08:40:00;16.27;;;9.23;;
4921;SDS011;16625;53.624;10.106;2023-11-18T08:42:28;14.13;;;9.03;;
4921;SDS011;16625;53.624;10.106;2023-11-18T08:44:59;12.60;;;8.40;;
4921;SDS011;16625;53.624;10.106;2023-11-18T08:47:26;13.70;;;8.67;;
4921;SDS011;16625;53.624;10.106;2023-11-18T08:49:53;14.43;;;8.67;;
4921;SDS011;16625;53.624;10.106;2023-11-18T08:52:20;20.40;;;8.07;;
4921;SDS011;16625;53.624;10.106;2023-11-18T08:54:48;14.73;;;8.80;;
4921;SDS011;16625;53.624;10.106;2023-11-18T08:57:33;16.03;;;8.50;;
4921;SDS011;16625;53.624;10.106;2023-11-18T09:00:14;18.93;;;9.10;;
4921;SDS011;16625;53.624;10.106;2023-11-18T09:03:02;17.97;;;8.53;;
4921;SDS011;16625;53.624;10.106;2023-11-18T09:05:30;25.40;;;10.20;;
4921;SDS011;16625;53.624;10.106;2023-11-18T09:08:00;18.37;;;8.27;;
4921;SDS011;16625;53.624;10.106;2023-11-18T09:10:31;12.07;;;8.00;;
4921;SDS011;16625;53.624;10.106;2023-11-18T09:13:00;11.80;;;7.13;;
4921;SDS011;16625;53.624;10.106;2023-11-18T09:15:28;18.40;;;7.37;;
4921;SDS011;16625;53.624;10.106;2023-11-18T09:17:56;12.90;;;6.73;;
4921;SDS011;16625;53.624;10.106;2023-11-18T09:20:24;7.40;;;5.67;;
4921;SDS011;16625;53.624;10.106;2023-11-18T09:22:52;11.10;;;6.13;;
4921;SDS011;16625;53.624;10.106;2023-11-18T09:25:20;9.87;;;6.40;;
4921;SDS011;16625;53.624;10.106;2023-11-18T09:27:48;9.90;;;6.57;;
4921;SDS011;16625;53.624;10.106;2023-11-18T09:30:18;11.87;;;6.90;;
4921;SDS011;16625;53.624;10.106;2023-11-18T09:32:45;9.37;;;6.00;;
4921;SDS011;16625;53.624;10.106;2023-11-18T09:35:12;10.83;;;6.13;;
4921;SDS011;16625;53.624;10.106;2023-11-18T09:37:42;12.10;;;6.80;;
4921;SDS011;16625;53.624;10.106;2023-11-18T09:40:13;12.43;;;5.97;;
4921;SDS011;16625;53.624;10.106;2023-11-18T09:42:40;11.53;;;6.07;;
4921;SDS011;16625;53.624;10.106;2023-11-18T09:45:09;8.13;;;6.07;;
4921;SDS011;16625;53.624;10.106;2023-11-18T09:47:42;10.87;;;6.27;;
4921;SDS011;16625;53.624;10.106;2023-11-18T09:50:12;8.03;;;5.87;;
4921;SDS011;16625;53.624;10.106;2023-11-18T09:52:47;8.30;;;4.97;;
4921;SDS011;16625;53.624;10.106;2023-11-18T09:55:21;6.30;;;4.67;;
4921;SDS011;16625;53.624;10.106;2023-11-18T09:57:55;7.60;;;5.13;;
4921;SDS011;16625;53.624;10.106;2023-11-18T10:00:34;11.73;;;3.80;;
4921;SDS011;16625;53.624;10.106;2023-11-18T10:03:08;8.70;;;4.40;;
4921;SDS011;16625;53.624;10.106;2023-11-18T10:05:40;5.53;;;4.23;;
4921;SDS011;16625;53.624;10.106;2023-11-18T10:08:08;6.33;;;4.60;;
4921;SDS011;16625;53.624;10.106;2023-11-18T10:10:35;7.23;;;5.33;;
4921;SDS011;16625;53.624;10.106;2023-11-18T10:13:02;6.83;;;4.40;;
4921;SDS011;16625;53.624;10.106;2023-11-18T10:15:33;4.57;;;4.13;;
4921;SDS011;16625;53.624;10.106;2023-11-18T10:18:02;6.77;;;4.20;;
4921;SDS011;16625;53.624;10.106;2023-11-18T10:20:47;5.77;;;4.00;;
4921;SDS011;16625;53.624;10.106;2023-11-18T10:23:16;12.93;;;5.13;;
4921;SDS011;16625;53.624;10.106;2023-11-18T10:25:46;6.50;;;3.97;;
4921;SDS011;16625;53.624;10.106;2023-11-18T10:28:22;7.17;;;3.97;;
4921;SDS011;16625;53.624;10.106;2023-11-18T10:41:53;5.17;;;3.80;;
4921;SDS011;16625;53.624;10.106;2023-11-18T10:44:26;4.67;;;3.57;;
4921;SDS011;16625;53.624;10.106;2023-11-18T10:46:55;4.10;;;3.03;;
4921;SDS011;16625;53.624;10.106;2023-11-18T10:49:24;4.33;;;3.00;;
4921;SDS011;16625;53.624;10.106;2023-11-18T10:51:54;4.70;;;3.30;;
4921;SDS011;16625;53.624;10.106;2023-11-18T10:54:23;3.90;;;3.03;;
4921;SDS011;16625;53.624;10.106;2023-11-18T10:56:53;3.63;;;3.23;;
4921;SDS011;16625;53.624;10.106;2023-11-18T10:59:22;3.00;;;2.70;;
4921;SDS011;16625;53.624;10.106;2023-11-18T11:01:50;3.90;;;2.77;;
4921;SDS011;16625;53.624;10.106;2023-11-18T11:04:18;6.47;;;2.73;;
4921;SDS011;16625;53.624;10.106;2023-11-18T11:06:47;4.50;;;2.73;;
4921;SDS011;16625;53.624;10.106;2023-11-18T11:09:19;4.87;;;2.70;;
4921;SDS011;16625;53.624;10.106;2023-11-18T11:11:51;5.10;;;2.73;;
4921;SDS011;16625;53.624;10.106;2023-11-18T11:14:30;4.87;;;2.67;;
4921;SDS011;16625;53.624;10.106;2023-11-18T11:17:05;5.50;;;3.37;;
4921;SDS011;16625;53.624;10.106;2023-11-18T11:19:38;3.13;;;2.40;;
4921;SDS011;16625;53.624;10.106;2023-11-18T11:22:14;5.57;;;2.93;;
4921;SDS011;16625;53.624;10.106;2023-11-18T11:24:49;3.70;;;3.03;;
4921;SDS011;16625;53.624;10.106;2023-11-18T11:27:28;7.50;;;2.60;;
4921;SDS011;16625;53.624;10.106;2023-11-18T11:30:07;3.30;;;2.67;;
4921;SDS011;16625;53.624;10.106;2023-11-18T11:32:45;4.30;;;3.00;;
4921;SDS011;16625;53.624;10.106;2023-11-18T11:35:19;4.30;;;3.33;;
4921;SDS011;16625;53.624;10.106;2023-11-18T11:37:49;3.30;;;2.60;;
4921;SDS011;16625;53.624;10.106;2023-11-18T11:40:21;4.47;;;3.47;;
4921;SDS011;16625;53.624;10.106;2023-11-18T11:42:51;3.13;;;2.83;;
4921;SDS011;16625;53.624;10.106;2023-11-18T11:45:22;3.50;;;2.40;;
4921;SDS011;16625;53.624;10.106;2023-11-18T11:47:53;4.10;;;2.90;;
4921;SDS011;16625;53.624;10.106;2023-11-18T11:50:39;2.80;;;2.47;;
4921;SDS011;16625;53.624;10.106;2023-11-18T11:53:20;3.40;;;2.93;;
4921;SDS011;16625;53.624;10.106;2023-11-18T11:55:52;4.17;;;2.90;;
4921;SDS011;16625;53.624;10.106;2023-11-18T11:58:33;5.57;;;3.17;;
4921;SDS011;16625;53.624;10.106;2023-11-18T12:01:03;3.70;;;3.10;;
4921;SDS011;16625;53.624;10.106;2023-11-18T12:03:46;4.70;;;3.60;;
4921;SDS011;16625;53.624;10.106;2023-11-18T12:06:17;4.10;;;2.87;;
4921;SDS011;16625;53.624;10.106;2023-11-18T12:08:46;2.90;;;2.70;;
4921;SDS011;16625;53.624;10.106;2023-11-18T12:11:16;4.10;;;3.17;;
4921;SDS011;16625;53.624;10.106;2023-11-18T12:14:01;5.10;;;3.57;;
4921;SDS011;16625;53.624;10.106;2023-11-18T12:19:29;4.40;;;2.67;;
4921;SDS011;16625;53.624;10.106;2023-11-18T12:21:57;5.50;;;4.03;;
4921;SDS011;16625;53.624;10.106;2023-11-18T12:24:26;4.77;;;3.50;;
4921;SDS011;16625;53.624;10.106;2023-11-18T12:26:54;5.57;;;3.50;;
4921;SDS011;16625;53.624;10.106;2023-11-18T12:29:33;6.57;;;4.20;;
4921;SDS011;16625;53.624;10.106;2023-11-18T12:32:00;5.97;;;4.00;;
4921;SDS011;16625;53.624;10.106;2023-11-18T12:40:39;7.27;;;4.10;;
4921;SDS011;16625;53.624;10.106;2023-11-18T12:43:18;5.53;;;4.40;;
4921;SDS011;16625;53.624;10.106;2023-11-18T12:46:25;5.77;;;3.47;;
4921;SDS011;16625;53.624;10.106;2023-11-18T12:49:20;8.80;;;3.53;;
4921;SDS011;16625;53.624;10.106;2023-11-18T12:51:48;7.23;;;4.17;;
4921;SDS011;16625;53.624;10.106;2023-11-18T12:54:16;10.17;;;4.73;;
4921;SDS011;16625;53.624;10.106;2023-11-18T12:56:45;6.33;;;4.23;;
4921;SDS011;16625;53.624;10.106;2023-11-18T12:59:14;4.57;;;3.60;;
4921;SDS011;16625;53.624;10.106;2023-11-18T13:01:44;16.53;;;4.07;;
4921;SDS011;16625;53.624;10.106;2023-11-18T13:04:18;5.30;;;3.47;;
4921;SDS011;16625;53.624;10.106;2023-11-18T13:06:46;4.23;;;3.37;;
4921;SDS011;16625;53.624;10.106;2023-11-18T13:09:16;6.20;;;3.77;;
4921;SDS011;16625;53.624;10.106;2023-11-18T13:11:52;6.20;;;3.87;;
4921;SDS011;16625;53.624;10.106;2023-11-18T13:14:21;6.00;;;4.73;;
4921;SDS011;16625;53.624;10.106;2023-11-18T13:16:52;6.10;;;3.87;;
4921;SDS011;16625;53.624;10.106;2023-11-18T13:19:23;5.10;;;3.97;;
4921;SDS011;16625;53.624;10.106;2023-11-18T13:21:51;4.60;;;3.33;;
4921;SDS011;16625;53.624;10.106;2023-11-18T13:24:22;10.57;;;3.87;;
4921;SDS011;16625;53.624;10.106;2023-11-18T13:26:49;5.40;;;4.80;;
4921;SDS011;16625;53.624;10.106;2023-11-18T13:29:17;6.13;;;4.03;;
4921;SDS011;16625;53.624;10.106;2023-11-18T13:31:44;7.20;;;3.70;;
4921;SDS011;16625;53.624;10.106;2023-11-18T13:34:14;5.70;;;3.63;;
4921;SDS011;16625;53.624;10.106;2023-11-18T13:36:41;5.23;;;3.30;;
4921;SDS011;16625;53.624;10.106;2023-11-18T13:39:08;6.50;;;4.23;;
4921;SDS011;16625;53.624;10.106;2023-11-18T13:41:42;10.63;;;5.07;;
4921;SDS011;16625;53.624;10.106;2023-11-18T13:44:10;9.03;;;5.20;;
4921;SDS011;16625;53.624;10.106;2023-11-18T13:46:38;5.03;;;4.00;;
4921;SDS011;16625;53.624;10.106;2023-11-18T13:49:06;7.53;;;4.23;;
4921;SDS011;16625;53.624;10.106;2023-11-18T13:51:34;7.37;;;5.10;;
4921;SDS011;16625;53.624;10.106;2023-11-18T13:54:02;7.10;;;4.97;;
4921;SDS011;16625;53.624;10.106;2023-11-18T13:56:30;5.80;;;4.30;;
4921;SDS011;16625;53.624;10.106;2023-11-18T13:58:57;5.67;;;4.27;;
4921;SDS011;16625;53.624;10.106;2023-11-18T14:01:25;6.93;;;4.10;;
4921;SDS011;16625;53.624;10.106;2023-11-18T14:03:53;6.80;;;4.40;;
4921;SDS011;16625;53.624;10.106;2023-11-18T14:06:21;9.03;;;4.83;;
4921;SDS011;16625;53.624;10.106;2023-11-18T14:08:50;5.30;;;4.40;;
4921;SDS011;16625;53.624;10.106;2023-11-18T14:11:17;6.43;;;4.20;;
4921;SDS011;16625;53.624;10.106;2023-11-18T14:13:45;7.00;;;4.53;;
4921;SDS011;16625;53.624;10.106;2023-11-18T14:16:12;4.10;;;3.40;;
4921;SDS011;16625;53.624;10.106;2023-11-18T14:18:41;6.27;;;4.10;;
4921;SDS011;16625;53.624;10.106;2023-11-18T14:21:08;4.40;;;3.50;;
4921;SDS011;16625;53.624;10.106;2023-11-18T14:23:36;6.53;;;3.80;;
4921;SDS011;16625;53.624;10.106;2023-11-18T14:26:06;7.40;;;4.67;;
4921;SDS011;16625;53.624;10.106;2023-11-18T14:28:33;6.60;;;4.40;;
4921;SDS011;16625;53.624;10.106;2023-11-18T14:31:02;6.33;;;4.50;;
4921;SDS011;16625;53.624;10.106;2023-11-18T14:33:30;5.67;;;3.63;;
4921;SDS011;16625;53.624;10.106;2023-11-18T14:35:58;5.50;;;3.60;;
4921;SDS011;16625;53.624;10.106;2023-11-18T14:38:26;6.80;;;4.40;;
4921;SDS011;16625;53.624;10.106;2023-11-18T14:40:57;5.53;;;4.47;;
4921;SDS011;16625;53.624;10.106;2023-11-18T14:43:26;5.93;;;4.10;;
4921;SDS011;16625;53.624;10.106;2023-11-18T14:45:54;5.87;;;4.00;;
4921;SDS011;16625;53.624;10.106;2023-11-18T14:48:22;9.10;;;4.90;;
4921;SDS011;16625;53.624;10.106;2023-11-18T14:50:53;7.20;;;4.37;;
4921;SDS011;16625;53.624;10.106;2023-11-18T14:53:22;4.90;;;3.67;;
4921;SDS011;16625;53.624;10.106;2023-11-18T14:55:50;7.53;;;4.30;;
4921;SDS011;16625;53.624;10.106;2023-11-18T14:58:17;5.90;;;3.53;;
4921;SDS011;16625;53.624;10.106;2023-11-18T15:00:45;6.10;;;3.50;;
4921;SDS011;16625;53.624;10.106;2023-11-18T15:03:12;10.70;;;4.93;;
4921;SDS011;16625;53.624;10.106;2023-11-18T15:05:42;7.47;;;4.87;;
4921;SDS011;16625;53.624;10.106;2023-11-18T15:08:09;6.67;;;4.20;;
4921;SDS011;16625;53.624;10.106;2023-11-18T15:10:39;7.53;;;4.00;;
4921;SDS011;16625;53.624;10.106;2023-11-18T15:13:09;6.00;;;4.80;;